sensor_id;sensor_type;location;lat;lon;timestamp;P1;durP1;ratioP1;P2;durP2;ratioP2
20705;SDS011;10514;49.468;11.044;2023-07-31T00:00:31;3.95;;;1.35;;
20705;SDS011;10514;49.468;11.044;2023-07-31T00:02:57;3.97;;;1.42;;
20705;SDS011;10514;49.468;11.044;2023-07-31T00:05:22;3.80;;;1.20;;
20705;SDS011;10514;49.468;11.044;2023-07-31T00:07:48;3.60;;;1.30;;
20705;SDS011;10514;49.468;11.044;2023-07-31T00:10:13;4.93;;;1.30;;
20705;SDS011;10514;49.468;11.044;2023-07-31T00:12:40;4.97;;;1.70;;
20705;SDS011;10514;49.468;11.044;2023-07-31T00:15:07;3.70;;;1.13;;
20705;SDS011;10514;49.468;11.044;2023-07-31T00:17:33;4.20;;;1.33;;
20705;SDS011;10514;49.468;11.044;2023-07-31T00:19:58;4.40;;;1.20;;
20705;SDS011;10514;49.468;11.044;2023-07-31T00:22:24;3.97;;;1.60;;
20705;SDS011;10514;49.468;11.044;2023-07-31T00:24:49;3.88;;;0.90;;
20705;SDS011;10514;49.468;11.044;2023-07-31T00:27:15;7.80;;;1.80;;
20705;SDS011;10514;49.468;11.044;2023-07-31T00:29:40;4.38;;;1.30;;
20705;SDS011;10514;49.468;11.044;2023-07-31T00:32:06;2.67;;;1.33;;
20705;SDS011;10514;49.468;11.044;2023-07-31T00:34:32;2.40;;;1.02;;
20705;SDS011;10514;49.468;11.044;2023-07-31T00:36:57;4.57;;;1.63;;
20705;SDS011;10514;49.468;11.044;2023-07-31T00:39:23;5.47;;;0.98;;
20705;SDS011;10514;49.468;11.044;2023-07-31T00:41:48;3.17;;;1.30;;
20705;SDS011;10514;49.468;11.044;2023-07-31T00:44:14;1.35;;;1.00;;
20705;SDS011;10514;49.468;11.044;2023-07-31T00:46:39;3.72;;;1.08;;
20705;SDS011;10514;49.468;11.044;2023-07-31T00:49:05;2.25;;;1.02;;
20705;SDS011;10514;49.468;11.044;2023-07-31T00:51:31;2.65;;;1.20;;
20705;SDS011;10514;49.468;11.044;2023-07-31T00:53:57;3.78;;;1.20;;
20705;SDS011;10514;49.468;11.044;2023-07-31T00:56:23;2.65;;;1.40;;
20705;SDS011;10514;49.468;11.044;2023-07-31T00:58:50;6.32;;;1.15;;
20705;SDS011;10514;49.468;11.044;2023-07-31T01:01:15;4.07;;;1.38;;
20705;SDS011;10514;49.468;11.044;2023-07-31T01:03:41;5.88;;;1.25;;
20705;SDS011;10514;49.468;11.044;2023-07-31T01:09:06;3.90;;;1.30;;
20705;SDS011;10514;49.468;11.044;2023-07-31T01:11:43;4.75;;;1.38;;
20705;SDS011;10514;49.468;11.044;2023-07-31T01:14:17;4.32;;;1.35;;
20705;SDS011;10514;49.468;11.044;2023-07-31T01:16:42;3.63;;;1.10;;
20705;SDS011;10514;49.468;11.044;2023-07-31T01:19:08;5.78;;;1.33;;
20705;SDS011;10514;49.468;11.044;2023-07-31T01:27:04;5.60;;;1.33;;
20705;SDS011;10514;49.468;11.044;2023-07-31T01:29:38;5.32;;;1.42;;
20705;SDS011;10514;49.468;11.044;2023-07-31T01:32:14;6.45;;;1.30;;
20705;SDS011;10514;49.468;11.044;2023-07-31T01:34:42;5.53;;;1.23;;
20705;SDS011;10514;49.468;11.044;2023-07-31T01:37:09;3.67;;;1.17;;
20705;SDS011;10514;49.468;11.044;2023-07-31T01:39:34;4.68;;;1.20;;
20705;SDS011;10514;49.468;11.044;2023-07-31T01:42:00;3.25;;;1.20;;
20705;SDS011;10514;49.468;11.044;2023-07-31T01:44:26;3.55;;;1.40;;
20705;SDS011;10514;49.468;11.044;2023-07-31T01:46:52;4.95;;;1.50;;
20705;SDS011;10514;49.468;11.044;2023-07-31T01:49:18;4.78;;;1.65;;
20705;SDS011;10514;49.468;11.044;2023-07-31T01:51:43;2.90;;;1.20;;
20705;SDS011;10514;49.468;11.044;2023-07-31T01:54:08;3.47;;;1.20;;
20705;SDS011;10514;49.468;11.044;2023-07-31T01:56:34;4.13;;;1.10;;
20705;SDS011;10514;49.468;11.044;2023-07-31T01:58:59;4.15;;;1.10;;
20705;SDS011;10514;49.468;11.044;2023-07-31T02:01:25;2.10;;;0.90;;
20705;SDS011;10514;49.468;11.044;2023-07-31T02:03:50;4.20;;;1.33;;
20705;SDS011;10514;49.468;11.044;2023-07-31T02:06:16;3.15;;;1.08;;
20705;SDS011;10514;49.468;11.044;2023-07-31T02:08:41;4.97;;;1.30;;
20705;SDS011;10514;49.468;11.044;2023-07-31T02:11:07;3.15;;;1.30;;
20705;SDS011;10514;49.468;11.044;2023-07-31T02:13:33;6.05;;;1.30;;
20705;SDS011;10514;49.468;11.044;2023-07-31T02:15:58;4.72;;;1.35;;
20705;SDS011;10514;49.468;11.044;2023-07-31T02:18:24;3.20;;;1.15;;
20705;SDS011;10514;49.468;11.044;2023-07-31T02:20:50;5.35;;;1.52;;
20705;SDS011;10514;49.468;11.044;2023-07-31T02:23:16;5.15;;;1.50;;
20705;SDS011;10514;49.468;11.044;2023-07-31T02:25:45;3.78;;;1.40;;
20705;SDS011;10514;49.468;11.044;2023-07-31T02:28:11;5.25;;;1.27;;
20705;SDS011;10514;49.468;11.044;2023-07-31T02:30:37;3.90;;;1.33;;
20705;SDS011;10514;49.468;11.044;2023-07-31T02:33:03;6.93;;;1.25;;
20705;SDS011;10514;49.468;11.044;2023-07-31T02:35:28;1.85;;;1.10;;
20705;SDS011;10514;49.468;11.044;2023-07-31T02:37:54;7.05;;;1.40;;
20705;SDS011;10514;49.468;11.044;2023-07-31T02:40:20;3.20;;;1.10;;
20705;SDS011;10514;49.468;11.044;2023-07-31T02:42:46;2.53;;;0.95;;
20705;SDS011;10514;49.468;11.044;2023-07-31T02:45:12;2.63;;;1.40;;
20705;SDS011;10514;49.468;11.044;2023-07-31T02:47:38;3.65;;;1.13;;
20705;SDS011;10514;49.468;11.044;2023-07-31T02:50:03;4.65;;;1.17;;
20705;SDS011;10514;49.468;11.044;2023-07-31T02:52:29;5.32;;;1.17;;
20705;SDS011;10514;49.468;11.044;2023-07-31T02:54:55;4.63;;;1.13;;
20705;SDS011;10514;49.468;11.044;2023-07-31T02:57:21;2.63;;;1.10;;
20705;SDS011;10514;49.468;11.044;2023-07-31T02:59:46;2.47;;;1.30;;
20705;SDS011;10514;49.468;11.044;2023-07-31T03:02:12;4.32;;;1.35;;
20705;SDS011;10514;49.468;11.044;2023-07-31T03:04:38;5.32;;;1.30;;
20705;SDS011;10514;49.468;11.044;2023-07-31T03:07:03;7.13;;;1.30;;
20705;SDS011;10514;49.468;11.044;2023-07-31T03:09:29;3.08;;;1.17;;
20705;SDS011;10514;49.468;11.044;2023-07-31T03:11:55;6.40;;;1.70;;
20705;SDS011;10514;49.468;11.044;2023-07-31T03:14:20;3.20;;;1.60;;
20705;SDS011;10514;49.468;11.044;2023-07-31T03:16:46;6.88;;;1.35;;
20705;SDS011;10514;49.468;11.044;2023-07-31T03:19:11;5.82;;;1.50;;
20705;SDS011;10514;49.468;11.044;2023-07-31T03:21:37;3.80;;;1.20;;
20705;SDS011;10514;49.468;11.044;2023-07-31T03:24:03;7.18;;;1.58;;
20705;SDS011;10514;49.468;11.044;2023-07-31T03:26:30;4.47;;;1.30;;
20705;SDS011;10514;49.468;11.044;2023-07-31T03:28:56;5.57;;;1.80;;
20705;SDS011;10514;49.468;11.044;2023-07-31T03:31:22;3.42;;;1.20;;
20705;SDS011;10514;49.468;11.044;2023-07-31T03:33:47;1.92;;;1.40;;
20705;SDS011;10514;49.468;11.044;2023-07-31T03:36:13;4.18;;;1.25;;
20705;SDS011;10514;49.468;11.044;2023-07-31T03:38:39;5.43;;;1.40;;
20705;SDS011;10514;49.468;11.044;2023-07-31T03:41:04;2.35;;;1.10;;
20705;SDS011;10514;49.468;11.044;2023-07-31T03:43:31;5.57;;;1.63;;
20705;SDS011;10514;49.468;11.044;2023-07-31T03:45:58;3.17;;;1.30;;
20705;SDS011;10514;49.468;11.044;2023-07-31T03:48:24;1.95;;;1.05;;
20705;SDS011;10514;49.468;11.044;2023-07-31T03:50:50;6.47;;;1.45;;
20705;SDS011;10514;49.468;11.044;2023-07-31T03:53:15;7.97;;;1.73;;
20705;SDS011;10514;49.468;11.044;2023-07-31T03:55:41;5.53;;;1.70;;
20705;SDS011;10514;49.468;11.044;2023-07-31T03:58:06;6.50;;;1.55;;
20705;SDS011;10514;49.468;11.044;2023-07-31T04:00:32;4.80;;;1.35;;
20705;SDS011;10514;49.468;11.044;2023-07-31T04:02:58;2.22;;;1.05;;
20705;SDS011;10514;49.468;11.044;2023-07-31T04:05:23;4.00;;;1.38;;
20705;SDS011;10514;49.468;11.044;2023-07-31T04:07:49;2.25;;;1.40;;
20705;SDS011;10514;49.468;11.044;2023-07-31T04:10:15;3.85;;;1.30;;
20705;SDS011;10514;49.468;11.044;2023-07-31T04:12:40;6.25;;;1.83;;
20705;SDS011;10514;49.468;11.044;2023-07-31T04:15:06;2.22;;;1.23;;
20705;SDS011;10514;49.468;11.044;2023-07-31T04:17:32;2.33;;;1.50;;
20705;SDS011;10514;49.468;11.044;2023-07-31T04:19:58;2.53;;;1.38;;
20705;SDS011;10514;49.468;11.044;2023-07-31T04:22:23;4.78;;;1.30;;
20705;SDS011;10514;49.468;11.044;2023-07-31T04:24:49;3.08;;;0.93;;
20705;SDS011;10514;49.468;11.044;2023-07-31T04:27:15;4.95;;;1.55;;
20705;SDS011;10514;49.468;11.044;2023-07-31T04:29:41;3.33;;;1.33;;
20705;SDS011;10514;49.468;11.044;2023-07-31T04:32:09;2.30;;;1.10;;
20705;SDS011;10514;49.468;11.044;2023-07-31T04:34:34;5.15;;;1.40;;
20705;SDS011;10514;49.468;11.044;2023-07-31T04:37:00;2.90;;;1.40;;
20705;SDS011;10514;49.468;11.044;2023-07-31T04:39:26;2.80;;;1.10;;
20705;SDS011;10514;49.468;11.044;2023-07-31T04:41:51;4.68;;;1.15;;
20705;SDS011;10514;49.468;11.044;2023-07-31T04:44:17;3.78;;;1.73;;
20705;SDS011;10514;49.468;11.044;2023-07-31T04:46:43;1.88;;;1.33;;
20705;SDS011;10514;49.468;11.044;2023-07-31T04:49:09;2.72;;;1.00;;
20705;SDS011;10514;49.468;11.044;2023-07-31T04:51:34;4.45;;;1.42;;
20705;SDS011;10514;49.468;11.044;2023-07-31T04:54:00;4.00;;;1.33;;
20705;SDS011;10514;49.468;11.044;2023-07-31T04:56:25;7.03;;;1.60;;
20705;SDS011;10514;49.468;11.044;2023-07-31T04:58:51;3.95;;;1.40;;
20705;SDS011;10514;49.468;11.044;2023-07-31T05:01:16;3.22;;;1.30;;
20705;SDS011;10514;49.468;11.044;2023-07-31T05:03:42;4.50;;;1.55;;
20705;SDS011;10514;49.468;11.044;2023-07-31T05:06:08;4.00;;;1.30;;
20705;SDS011;10514;49.468;11.044;2023-07-31T05:08:34;6.22;;;1.40;;
20705;SDS011;10514;49.468;11.044;2023-07-31T05:11:00;4.00;;;1.70;;
20705;SDS011;10514;49.468;11.044;2023-07-31T05:13:25;6.05;;;1.33;;
20705;SDS011;10514;49.468;11.044;2023-07-31T05:15:51;4.63;;;1.33;;
20705;SDS011;10514;49.468;11.044;2023-07-31T05:18:17;6.00;;;1.38;;
20705;SDS011;10514;49.468;11.044;2023-07-31T05:20:42;3.85;;;1.17;;
20705;SDS011;10514;49.468;11.044;2023-07-31T05:23:08;4.38;;;1.40;;
20705;SDS011;10514;49.468;11.044;2023-07-31T05:25:33;5.32;;;1.77;;
20705;SDS011;10514;49.468;11.044;2023-07-31T05:27:59;3.50;;;1.40;;
20705;SDS011;10514;49.468;11.044;2023-07-31T05:30:25;4.68;;;1.50;;
20705;SDS011;10514;49.468;11.044;2023-07-31T05:32:51;7.53;;;1.80;;
20705;SDS011;10514;49.468;11.044;2023-07-31T05:35:17;5.38;;;1.42;;
20705;SDS011;10514;49.468;11.044;2023-07-31T05:37:42;5.75;;;1.45;;
20705;SDS011;10514;49.468;11.044;2023-07-31T05:40:08;5.25;;;1.30;;
20705;SDS011;10514;49.468;11.044;2023-07-31T05:42:34;4.40;;;1.55;;
20705;SDS011;10514;49.468;11.044;2023-07-31T05:45:01;4.60;;;1.52;;
20705;SDS011;10514;49.468;11.044;2023-07-31T05:47:27;3.58;;;1.70;;
20705;SDS011;10514;49.468;11.044;2023-07-31T05:49:53;4.88;;;1.45;;
20705;SDS011;10514;49.468;11.044;2023-07-31T05:52:18;5.63;;;1.38;;
20705;SDS011;10514;49.468;11.044;2023-07-31T05:54:44;4.13;;;1.88;;
20705;SDS011;10514;49.468;11.044;2023-07-31T05:57:11;5.57;;;1.52;;
20705;SDS011;10514;49.468;11.044;2023-07-31T05:59:36;7.10;;;1.75;;
20705;SDS011;10514;49.468;11.044;2023-07-31T06:02:02;4.75;;;1.70;;
20705;SDS011;10514;49.468;11.044;2023-07-31T06:04:27;3.47;;;1.35;;
20705;SDS011;10514;49.468;11.044;2023-07-31T06:06:53;4.28;;;1.20;;
20705;SDS011;10514;49.468;11.044;2023-07-31T06:09:18;2.45;;;1.10;;
20705;SDS011;10514;49.468;11.044;2023-07-31T06:11:45;3.40;;;1.58;;
20705;SDS011;10514;49.468;11.044;2023-07-31T06:14:11;3.92;;;1.48;;
20705;SDS011;10514;49.468;11.044;2023-07-31T06:16:37;4.25;;;1.00;;
20705;SDS011;10514;49.468;11.044;2023-07-31T06:19:02;6.18;;;1.48;;
20705;SDS011;10514;49.468;11.044;2023-07-31T06:21:28;2.83;;;1.45;;
20705;SDS011;10514;49.468;11.044;2023-07-31T06:23:54;3.17;;;1.40;;
20705;SDS011;10514;49.468;11.044;2023-07-31T06:26:20;3.47;;;1.20;;
20705;SDS011;10514;49.468;11.044;2023-07-31T06:28:45;6.38;;;1.55;;
20705;SDS011;10514;49.468;11.044;2023-07-31T06:31:11;2.92;;;1.35;;
20705;SDS011;10514;49.468;11.044;2023-07-31T06:33:37;3.22;;;1.30;;
20705;SDS011;10514;49.468;11.044;2023-07-31T06:36:02;3.20;;;1.17;;
20705;SDS011;10514;49.468;11.044;2023-07-31T06:38:28;3.63;;;1.40;;
20705;SDS011;10514;49.468;11.044;2023-07-31T06:40:54;4.57;;;1.48;;
20705;SDS011;10514;49.468;11.044;2023-07-31T06:43:20;5.45;;;1.23;;
20705;SDS011;10514;49.468;11.044;2023-07-31T06:45:56;6.88;;;1.63;;
20705;SDS011;10514;49.468;11.044;2023-07-31T06:48:22;3.85;;;1.38;;
20705;SDS011;10514;49.468;11.044;2023-07-31T06:50:48;5.47;;;1.65;;
20705;SDS011;10514;49.468;11.044;2023-07-31T06:53:14;4.05;;;1.58;;
20705;SDS011;10514;49.468;11.044;2023-07-31T06:55:40;2.85;;;1.48;;
20705;SDS011;10514;49.468;11.044;2023-07-31T06:58:06;5.70;;;1.90;;
20705;SDS011;10514;49.468;11.044;2023-07-31T07:00:32;6.10;;;1.58;;
20705;SDS011;10514;49.468;11.044;2023-07-31T07:02:58;3.70;;;1.70;;
20705;SDS011;10514;49.468;11.044;2023-07-31T07:05:24;5.40;;;1.30;;
20705;SDS011;10514;49.468;11.044;2023-07-31T07:07:50;3.95;;;1.33;;
20705;SDS011;10514;49.468;11.044;2023-07-31T07:10:17;3.47;;;1.60;;
20705;SDS011;10514;49.468;11.044;2023-07-31T07:12:43;5.47;;;1.40;;
20705;SDS011;10514;49.468;11.044;2023-07-31T07:15:09;4.28;;;1.45;;
20705;SDS011;10514;49.468;11.044;2023-07-31T07:17:35;5.03;;;1.73;;
20705;SDS011;10514;49.468;11.044;2023-07-31T07:20:01;5.35;;;1.55;;
20705;SDS011;10514;49.468;11.044;2023-07-31T07:22:28;3.53;;;1.63;;
20705;SDS011;10514;49.468;11.044;2023-07-31T07:24:54;5.90;;;1.58;;
20705;SDS011;10514;49.468;11.044;2023-07-31T07:27:21;5.20;;;1.80;;
20705;SDS011;10514;49.468;11.044;2023-07-31T07:29:47;4.70;;;1.65;;
20705;SDS011;10514;49.468;11.044;2023-07-31T07:32:13;4.97;;;1.65;;
20705;SDS011;10514;49.468;11.044;2023-07-31T07:34:39;9.10;;;1.60;;
20705;SDS011;10514;49.468;11.044;2023-07-31T07:37:05;5.85;;;1.70;;
20705;SDS011;10514;49.468;11.044;2023-07-31T07:39:31;4.68;;;1.92;;
20705;SDS011;10514;49.468;11.044;2023-07-31T07:41:56;6.45;;;1.63;;
20705;SDS011;10514;49.468;11.044;2023-07-31T07:44:22;8.40;;;1.83;;
20705;SDS011;10514;49.468;11.044;2023-07-31T07:46:48;3.50;;;1.85;;
20705;SDS011;10514;49.468;11.044;2023-07-31T07:49:14;3.97;;;1.77;;
20705;SDS011;10514;49.468;11.044;2023-07-31T07:51:40;8.07;;;2.25;;
20705;SDS011;10514;49.468;11.044;2023-07-31T07:54:06;3.50;;;1.60;;
20705;SDS011;10514;49.468;11.044;2023-07-31T07:56:32;7.45;;;1.90;;
20705;SDS011;10514;49.468;11.044;2023-07-31T07:58:58;6.47;;;1.95;;
20705;SDS011;10514;49.468;11.044;2023-07-31T08:01:24;3.85;;;1.88;;
20705;SDS011;10514;49.468;11.044;2023-07-31T08:03:49;4.55;;;1.75;;
20705;SDS011;10514;49.468;11.044;2023-07-31T08:06:15;4.88;;;1.50;;
20705;SDS011;10514;49.468;11.044;2023-07-31T08:08:40;11.13;;;2.33;;
20705;SDS011;10514;49.468;11.044;2023-07-31T08:11:06;3.92;;;1.77;;
20705;SDS011;10514;49.468;11.044;2023-07-31T08:13:32;3.58;;;1.73;;
20705;SDS011;10514;49.468;11.044;2023-07-31T08:15:58;5.65;;;2.03;;
20705;SDS011;10514;49.468;11.044;2023-07-31T08:18:23;12.57;;;2.35;;
20705;SDS011;10514;49.468;11.044;2023-07-31T08:20:49;5.53;;;1.67;;
20705;SDS011;10514;49.468;11.044;2023-07-31T08:23:15;5.72;;;2.22;;
20705;SDS011;10514;49.468;11.044;2023-07-31T08:25:41;7.22;;;1.63;;
20705;SDS011;10514;49.468;11.044;2023-07-31T08:28:06;4.85;;;1.92;;
20705;SDS011;10514;49.468;11.044;2023-07-31T08:30:33;7.10;;;1.67;;
20705;SDS011;10514;49.468;11.044;2023-07-31T08:32:58;5.85;;;2.00;;
20705;SDS011;10514;49.468;11.044;2023-07-31T08:35:25;5.65;;;1.65;;
20705;SDS011;10514;49.468;11.044;2023-07-31T08:37:53;2.75;;;1.30;;
20705;SDS011;10514;49.468;11.044;2023-07-31T08:40:19;4.32;;;1.60;;
20705;SDS011;10514;49.468;11.044;2023-07-31T08:42:46;6.38;;;1.50;;
20705;SDS011;10514;49.468;11.044;2023-07-31T08:45:17;5.57;;;2.00;;
20705;SDS011;10514;49.468;11.044;2023-07-31T08:47:44;4.50;;;2.00;;
20705;SDS011;10514;49.468;11.044;2023-07-31T08:50:16;5.30;;;2.22;;
20705;SDS011;10514;49.468;11.044;2023-07-31T08:52:43;4.70;;;1.70;;
20705;SDS011;10514;49.468;11.044;2023-07-31T08:55:09;3.97;;;1.80;;
20705;SDS011;10514;49.468;11.044;2023-07-31T08:57:36;5.22;;;1.58;;
20705;SDS011;10514;49.468;11.044;2023-07-31T09:00:07;6.53;;;2.13;;
20705;SDS011;10514;49.468;11.044;2023-07-31T09:02:45;4.15;;;1.63;;
20705;SDS011;10514;49.468;11.044;2023-07-31T09:05:20;4.97;;;1.67;;
20705;SDS011;10514;49.468;11.044;2023-07-31T09:07:47;4.50;;;1.90;;
20705;SDS011;10514;49.468;11.044;2023-07-31T09:10:14;7.97;;;1.88;;
20705;SDS011;10514;49.468;11.044;2023-07-31T09:12:40;7.15;;;1.60;;
20705;SDS011;10514;49.468;11.044;2023-07-31T09:15:07;6.97;;;1.98;;
20705;SDS011;10514;49.468;11.044;2023-07-31T09:17:34;4.38;;;1.67;;
20705;SDS011;10514;49.468;11.044;2023-07-31T09:20:14;4.25;;;1.38;;
20705;SDS011;10514;49.468;11.044;2023-07-31T09:22:44;4.82;;;2.30;;
20705;SDS011;10514;49.468;11.044;2023-07-31T09:25:15;5.05;;;1.90;;
20705;SDS011;10514;49.468;11.044;2023-07-31T09:27:47;4.30;;;2.10;;
20705;SDS011;10514;49.468;11.044;2023-07-31T09:30:23;4.18;;;1.60;;
20705;SDS011;10514;49.468;11.044;2023-07-31T09:32:49;3.42;;;1.85;;
20705;SDS011;10514;49.468;11.044;2023-07-31T09:37:41;4.80;;;1.83;;
20705;SDS011;10514;49.468;11.044;2023-07-31T09:40:07;5.28;;;1.65;;
20705;SDS011;10514;49.468;11.044;2023-07-31T09:42:33;3.92;;;1.40;;
20705;SDS011;10514;49.468;11.044;2023-07-31T09:45:08;3.65;;;2.00;;
20705;SDS011;10514;49.468;11.044;2023-07-31T09:47:34;4.88;;;1.55;;
20705;SDS011;10514;49.468;11.044;2023-07-31T09:50:00;4.65;;;1.70;;
20705;SDS011;10514;49.468;11.044;2023-07-31T09:52:26;4.07;;;1.60;;
20705;SDS011;10514;49.468;11.044;2023-07-31T09:54:55;3.97;;;1.63;;
20705;SDS011;10514;49.468;11.044;2023-07-31T09:57:21;3.75;;;1.80;;
20705;SDS011;10514;49.468;11.044;2023-07-31T09:59:48;4.88;;;1.90;;
20705;SDS011;10514;49.468;11.044;2023-07-31T10:02:15;5.70;;;1.70;;
20705;SDS011;10514;49.468;11.044;2023-07-31T10:04:45;3.83;;;1.77;;
20705;SDS011;10514;49.468;11.044;2023-07-31T10:07:15;4.40;;;1.42;;
20705;SDS011;10514;49.468;11.044;2023-07-31T10:09:43;8.07;;;2.10;;
20705;SDS011;10514;49.468;11.044;2023-07-31T10:12:10;5.10;;;2.08;;
20705;SDS011;10514;49.468;11.044;2023-07-31T10:14:39;3.25;;;1.50;;
20705;SDS011;10514;49.468;11.044;2023-07-31T10:17:07;6.05;;;2.83;;
20705;SDS011;10514;49.468;11.044;2023-07-31T10:19:33;4.10;;;1.83;;
20705;SDS011;10514;49.468;11.044;2023-07-31T10:22:00;4.57;;;1.83;;
20705;SDS011;10514;49.468;11.044;2023-07-31T10:24:28;5.38;;;1.50;;
20705;SDS011;10514;49.468;11.044;2023-07-31T10:26:54;6.03;;;1.73;;
20705;SDS011;10514;49.468;11.044;2023-07-31T10:29:24;5.05;;;1.83;;
20705;SDS011;10514;49.468;11.044;2023-07-31T10:31:51;3.53;;;1.50;;
20705;SDS011;10514;49.468;11.044;2023-07-31T10:34:22;6.43;;;1.88;;
20705;SDS011;10514;49.468;11.044;2023-07-31T10:37:38;5.47;;;1.90;;
20705;SDS011;10514;49.468;11.044;2023-07-31T10:40:11;3.75;;;1.67;;
20705;SDS011;10514;49.468;11.044;2023-07-31T10:45:12;4.07;;;1.70;;
20705;SDS011;10514;49.468;11.044;2023-07-31T10:47:39;3.38;;;1.58;;
20705;SDS011;10514;49.468;11.044;2023-07-31T10:50:21;4.00;;;1.73;;
20705;SDS011;10514;49.468;11.044;2023-07-31T10:52:52;4.55;;;1.70;;
20705;SDS011;10514;49.468;11.044;2023-07-31T10:58:06;3.50;;;1.88;;
20705;SDS011;10514;49.468;11.044;2023-07-31T11:00:39;4.40;;;1.70;;
20705;SDS011;10514;49.468;11.044;2023-07-31T11:03:09;7.25;;;1.77;;
20705;SDS011;10514;49.468;11.044;2023-07-31T11:05:52;6.07;;;1.98;;
20705;SDS011;10514;49.468;11.044;2023-07-31T11:11:04;4.95;;;2.17;;
20705;SDS011;10514;49.468;11.044;2023-07-31T11:13:31;7.05;;;1.90;;
20705;SDS011;10514;49.468;11.044;2023-07-31T11:16:08;4.38;;;2.20;;
20705;SDS011;10514;49.468;11.044;2023-07-31T11:18:34;3.85;;;1.70;;
20705;SDS011;10514;49.468;11.044;2023-07-31T11:21:01;6.18;;;1.80;;
20705;SDS011;10514;49.468;11.044;2023-07-31T11:23:27;5.57;;;2.10;;
20705;SDS011;10514;49.468;11.044;2023-07-31T11:25:52;3.97;;;1.70;;
20705;SDS011;10514;49.468;11.044;2023-07-31T11:28:23;3.97;;;1.88;;
20705;SDS011;10514;49.468;11.044;2023-07-31T11:30:49;4.72;;;2.22;;
20705;SDS011;10514;49.468;11.044;2023-07-31T11:33:15;7.13;;;1.98;;
20705;SDS011;10514;49.468;11.044;2023-07-31T11:35:43;5.93;;;2.15;;
20705;SDS011;10514;49.468;11.044;2023-07-31T11:38:11;7.82;;;2.58;;
20705;SDS011;10514;49.468;11.044;2023-07-31T11:40:43;5.65;;;1.95;;
20705;SDS011;10514;49.468;11.044;2023-07-31T11:43:09;5.88;;;2.17;;
20705;SDS011;10514;49.468;11.044;2023-07-31T11:45:36;5.03;;;2.20;;
20705;SDS011;10514;49.468;11.044;2023-07-31T11:48:02;7.13;;;2.20;;
20705;SDS011;10514;49.468;11.044;2023-07-31T11:50:28;7.38;;;2.45;;
20705;SDS011;10514;49.468;11.044;2023-07-31T11:52:59;8.82;;;1.77;;
20705;SDS011;10514;49.468;11.044;2023-07-31T11:55:28;7.40;;;2.80;;
20705;SDS011;10514;49.468;11.044;2023-07-31T11:57:56;5.22;;;2.17;;
20705;SDS011;10514;49.468;11.044;2023-07-31T12:00:23;6.85;;;2.20;;
20705;SDS011;10514;49.468;11.044;2023-07-31T12:02:50;4.28;;;1.70;;
20705;SDS011;10514;49.468;11.044;2023-07-31T12:05:16;7.47;;;2.50;;
20705;SDS011;10514;49.468;11.044;2023-07-31T12:07:43;5.20;;;1.98;;
20705;SDS011;10514;49.468;11.044;2023-07-31T12:10:10;12.20;;;2.50;;
20705;SDS011;10514;49.468;11.044;2023-07-31T12:12:36;4.03;;;1.95;;
20705;SDS011;10514;49.468;11.044;2023-07-31T12:15:01;6.22;;;2.10;;
20705;SDS011;10514;49.468;11.044;2023-07-31T12:17:27;4.93;;;2.15;;
20705;SDS011;10514;49.468;11.044;2023-07-31T12:19:53;8.13;;;3.30;;
20705;SDS011;10514;49.468;11.044;2023-07-31T12:22:19;4.40;;;2.15;;
20705;SDS011;10514;49.468;11.044;2023-07-31T12:24:46;5.55;;;2.50;;
20705;SDS011;10514;49.468;11.044;2023-07-31T12:27:12;4.50;;;2.30;;
20705;SDS011;10514;49.468;11.044;2023-07-31T12:29:38;5.63;;;2.78;;
20705;SDS011;10514;49.468;11.044;2023-07-31T12:32:21;4.35;;;2.03;;
20705;SDS011;10514;49.468;11.044;2023-07-31T12:34:54;4.40;;;2.20;;
20705;SDS011;10514;49.468;11.044;2023-07-31T12:37:20;6.30;;;2.40;;
20705;SDS011;10514;49.468;11.044;2023-07-31T12:39:46;4.82;;;2.22;;
20705;SDS011;10514;49.468;11.044;2023-07-31T12:42:12;6.55;;;2.47;;
20705;SDS011;10514;49.468;11.044;2023-07-31T12:44:38;5.47;;;1.92;;
20705;SDS011;10514;49.468;11.044;2023-07-31T12:47:04;7.50;;;3.22;;
20705;SDS011;10514;49.468;11.044;2023-07-31T12:49:30;7.55;;;2.42;;
20705;SDS011;10514;49.468;11.044;2023-07-31T12:51:55;6.18;;;1.83;;
20705;SDS011;10514;49.468;11.044;2023-07-31T12:54:21;6.72;;;2.15;;
20705;SDS011;10514;49.468;11.044;2023-07-31T12:56:47;6.18;;;1.95;;
20705;SDS011;10514;49.468;11.044;2023-07-31T12:59:12;3.75;;;2.17;;
20705;SDS011;10514;49.468;11.044;2023-07-31T13:01:39;5.22;;;2.38;;
20705;SDS011;10514;49.468;11.044;2023-07-31T13:04:05;8.48;;;1.90;;
20705;SDS011;10514;49.468;11.044;2023-07-31T13:06:30;4.47;;;1.98;;
20705;SDS011;10514;49.468;11.044;2023-07-31T13:08:56;5.40;;;2.53;;
20705;SDS011;10514;49.468;11.044;2023-07-31T13:11:21;8.05;;;2.38;;
20705;SDS011;10514;49.468;11.044;2023-07-31T13:13:47;5.72;;;2.00;;
20705;SDS011;10514;49.468;11.044;2023-07-31T13:16:13;5.13;;;2.15;;
20705;SDS011;10514;49.468;11.044;2023-07-31T13:18:38;6.80;;;1.88;;
20705;SDS011;10514;49.468;11.044;2023-07-31T13:21:04;8.48;;;2.15;;
20705;SDS011;10514;49.468;11.044;2023-07-31T13:23:30;5.43;;;2.17;;
20705;SDS011;10514;49.468;11.044;2023-07-31T13:25:56;4.90;;;2.40;;
20705;SDS011;10514;49.468;11.044;2023-07-31T13:28:22;4.95;;;2.58;;
20705;SDS011;10514;49.468;11.044;2023-07-31T13:30:47;3.90;;;2.25;;
20705;SDS011;10514;49.468;11.044;2023-07-31T13:33:13;4.65;;;2.22;;
20705;SDS011;10514;49.468;11.044;2023-07-31T13:35:39;3.67;;;1.70;;
20705;SDS011;10514;49.468;11.044;2023-07-31T13:38:05;5.00;;;2.05;;
20705;SDS011;10514;49.468;11.044;2023-07-31T13:40:31;5.78;;;1.90;;
20705;SDS011;10514;49.468;11.044;2023-07-31T13:42:57;6.25;;;2.42;;
20705;SDS011;10514;49.468;11.044;2023-07-31T13:45:23;5.80;;;1.70;;
20705;SDS011;10514;49.468;11.044;2023-07-31T13:47:49;6.35;;;2.85;;
20705;SDS011;10514;49.468;11.044;2023-07-31T13:50:16;5.55;;;1.95;;
20705;SDS011;10514;49.468;11.044;2023-07-31T13:52:44;5.05;;;2.00;;
20705;SDS011;10514;49.468;11.044;2023-07-31T13:55:10;6.20;;;2.20;;
20705;SDS011;10514;49.468;11.044;2023-07-31T13:57:36;3.05;;;1.60;;
20705;SDS011;10514;49.468;11.044;2023-07-31T14:00:01;2.55;;;2.00;;
20705;SDS011;10514;49.468;11.044;2023-07-31T14:02:28;10.07;;;2.47;;
20705;SDS011;10514;49.468;11.044;2023-07-31T14:04:53;7.50;;;2.75;;
20705;SDS011;10514;49.468;11.044;2023-07-31T14:07:19;4.78;;;2.10;;
20705;SDS011;10514;49.468;11.044;2023-07-31T14:09:45;4.93;;;2.33;;
20705;SDS011;10514;49.468;11.044;2023-07-31T14:12:11;5.72;;;2.35;;
20705;SDS011;10514;49.468;11.044;2023-07-31T14:14:37;6.22;;;2.15;;
20705;SDS011;10514;49.468;11.044;2023-07-31T14:17:03;4.50;;;2.17;;
20705;SDS011;10514;49.468;11.044;2023-07-31T14:19:29;9.60;;;2.45;;
20705;SDS011;10514;49.468;11.044;2023-07-31T14:21:58;6.13;;;2.33;;
20705;SDS011;10514;49.468;11.044;2023-07-31T14:24:24;5.32;;;2.17;;
20705;SDS011;10514;49.468;11.044;2023-07-31T14:26:49;4.30;;;2.25;;
20705;SDS011;10514;49.468;11.044;2023-07-31T14:29:15;4.35;;;2.30;;
20705;SDS011;10514;49.468;11.044;2023-07-31T14:31:41;9.80;;;2.83;;
20705;SDS011;10514;49.468;11.044;2023-07-31T14:34:07;5.05;;;1.92;;
20705;SDS011;10514;49.468;11.044;2023-07-31T14:36:32;3.90;;;2.17;;
20705;SDS011;10514;49.468;11.044;2023-07-31T14:38:58;7.75;;;2.22;;
20705;SDS011;10514;49.468;11.044;2023-07-31T14:41:24;4.28;;;2.03;;
20705;SDS011;10514;49.468;11.044;2023-07-31T14:43:50;4.85;;;2.30;;
20705;SDS011;10514;49.468;11.044;2023-07-31T14:46:16;9.95;;;2.47;;
20705;SDS011;10514;49.468;11.044;2023-07-31T14:48:41;4.90;;;2.30;;